Time;durP1;ratioP1;P1;durP2;ratioP2;P2;SDS_P1;SDS_P2;PMS_P1;PMS_P2;Temp;Humidity;BMP_temperature;BMP_pressure;BME280_temperature;BME280_humidity;BME280_pressure;Samples;Min_cycle;Max_cycle;Signal;HPM_P1;HPM_P2
2022/10/12 00:01:48;;;;;;;14.33;7.70;;;;;;;;;;5054211;28;20421;-43
2022/10/12 00:04:14;;;;;;;21.10;8.03;;;;;;;;;;5053725;28;20442;-43
2022/10/12 00:06:40;;;;;;;9.93;6.73;;;;;;;;;;5052758;28;20534;-43
2022/10/12 00:09:06;;;;;;;10.40;7.53;;;;;;;;;;5053949;28;20464;-43
2022/10/12 00:11:32;;;;;;;12.53;7.23;;;;;;;;;;5053794;28;20406;-43
2022/10/12 00:13:58;;;;;;;12.50;7.30;;;;;;;;;;5053583;28;20413;-43
2022/10/12 00:16:25;;;;;;;11.97;7.60;;;;;;;;;;5053386;28;20454;-43
2022/10/12 00:18:52;;;;;;;16.27;7.90;;;;;;;;;;5053755;28;20425;-43
2022/10/12 00:21:19;;;;;;;9.73;7.10;;;;;;;;;;5053854;28;20560;-43
2022/10/12 00:23:45;;;;;;;9.20;6.47;;;;;;;;;;5053411;28;20405;-43
2022/10/12 00:26:15;;;;;;;15.20;6.53;;;;;;;;;;5053150;28;20874;-43
2022/10/12 00:28:41;;;;;;;13.73;6.87;;;;;;;;;;5053502;28;20434;-43
2022/10/12 00:31:09;;;;;;;7.63;6.63;;;;;;;;;;5053632;28;20788;-43
2022/10/12 00:33:37;;;;;;;15.45;6.70;;;;;;;;;;5053255;28;20437;-43
2022/10/12 00:36:12;;;;;;;14.65;7.45;;;;;;;;;;5053068;28;20245;-43
2022/10/12 00:38:38;;;;;;;11.60;7.28;;;;;;;;;;5053296;28;20273;-43
2022/10/12 00:41:04;;;;;;;7.53;6.77;;;;;;;;;;5053551;28;20191;-43
2022/10/12 00:43:35;;;;;;;9.30;7.00;;;;;;;;;;5053034;28;20909;-43
2022/10/12 00:46:03;;;;;;;10.70;6.17;;;;;;;;;;5053033;28;20407;-43
2022/10/12 00:48:29;;;;;;;13.00;7.43;;;;;;;;;;5053377;28;20432;-43
2022/10/12 00:50:55;;;;;;;14.80;7.67;;;;;;;;;;5053470;28;20532;-43
2022/10/12 00:53:24;;;;;;;8.97;6.20;;;;;;;;;;5053199;28;20415;-43
2022/10/12 00:55:53;;;;;;;11.68;7.70;;;;;;;;;;5051011;28;20959;-43
2022/10/12 00:58:19;;;;;;;12.83;7.40;;;;;;;;;;5052971;28;20179;-43
2022/10/12 01:00:45;;;;;;;10.43;6.70;;;;;;;;;;5052666;28;20405;-43
2022/10/12 01:03:13;;;;;;;8.33;7.17;;;;;;;;;;5052455;28;20417;-44
2022/10/12 01:05:39;;;;;;;15.10;6.83;;;;;;;;;;5052099;28;20444;-43
2022/10/12 01:08:05;;;;;;;17.92;7.28;;;;;;;;;;5052067;28;20414;-43
2022/10/12 01:10:31;;;;;;;8.83;6.03;;;;;;;;;;5052905;28;20523;-43
2022/10/12 01:12:58;;;;;;;8.40;5.70;;;;;;;;;;5052773;28;20398;-43
2022/10/12 01:15:26;;;;;;;11.70;7.00;;;;;;;;;;5052175;28;20453;-43
2022/10/12 01:17:55;;;;;;;7.93;6.75;;;;;;;;;;5052595;28;20502;-43
2022/10/12 01:20:40;;;;;;;8.48;6.20;;;;;;;;;;5052862;28;20256;-43
2022/10/12 01:23:18;;;;;;;8.60;6.70;;;;;;;;;;5053209;28;20171;-43
2022/10/12 01:25:56;;;;;;;8.90;6.40;;;;;;;;;;5052122;28;20390;-43
2022/10/12 01:28:28;;;;;;;12.10;6.70;;;;;;;;;;5052715;28;20954;-43
2022/10/12 01:30:59;;;;;;;9.43;6.53;;;;;;;;;;5052609;28;20898;-43
2022/10/12 01:33:28;;;;;;;13.00;8.20;;;;;;;;;;5052629;28;20403;-43
2022/10/12 01:36:18;;;;;;;18.10;7.13;;;;;;;;;;5051523;28;20973;-43
2022/10/12 01:38:47;;;;;;;11.83;6.77;;;;;;;;;;5049190;28;20511;-43
2022/10/12 01:41:16;;;;;;;8.55;7.03;;;;;;;;;;5052508;28;20416;-43
2022/10/12 01:43:42;;;;;;;13.45;6.45;;;;;;;;;;5052159;28;20247;-43
2022/10/12 01:46:14;;;;;;;8.37;6.20;;;;;;;;;;5051788;28;20182;-43
2022/10/12 01:48:41;;;;;;;8.75;5.80;;;;;;;;;;5052150;28;20425;-43
2022/10/12 01:51:08;;;;;;;9.35;6.55;;;;;;;;;;5052302;28;20167;-43
2022/10/12 01:53:41;;;;;;;9.10;6.05;;;;;;;;;;5052183;28;20177;-44
2022/10/12 01:56:07;;;;;;;7.10;6.32;;;;;;;;;;5050639;28;20217;-43
2022/10/12 01:58:59;;;;;;;8.37;6.50;;;;;;;;;;5051940;28;20647;-43
2022/10/12 02:01:25;;;;;;;9.35;6.68;;;;;;;;;;5043427;28;20926;-43
2022/10/12 02:03:57;;;;;;;12.43;7.30;;;;;;;;;;5051808;28;20654;-43
2022/10/12 02:06:24;;;;;;;10.27;6.10;;;;;;;;;;5051600;28;20398;-43
2022/10/12 02:09:01;;;;;;;7.32;6.18;;;;;;;;;;5051742;28;20433;-43
2022/10/12 02:11:28;;;;;;;10.60;6.33;;;;;;;;;;5051899;28;20167;-43
2022/10/12 02:13:56;;;;;;;12.03;6.70;;;;;;;;;;5051793;28;20424;-43
2022/10/12 02:16:25;;;;;;;12.80;7.75;;;;;;;;;;5051449;28;20488;-43
2022/10/12 02:18:52;;;;;;;9.63;6.60;;;;;;;;;;5051698;28;20186;-43
2022/10/12 02:21:20;;;;;;;14.13;6.30;;;;;;;;;;5051656;28;20431;-43
2022/10/12 02:23:48;;;;;;;15.32;7.50;;;;;;;;;;5051808;28;20189;-43
2022/10/12 02:26:15;;;;;;;15.97;6.50;;;;;;;;;;5051243;28;20170;-43
2022/10/12 02:28:43;;;;;;;15.25;6.18;;;;;;;;;;5051203;28;20460;-43
2022/10/12 02:31:21;;;;;;;9.55;6.43;;;;;;;;;;5051736;28;20164;-43
2022/10/12 02:33:55;;;;;;;11.35;6.45;;;;;;;;;;5051374;28;20178;-43
2022/10/12 02:36:28;;;;;;;8.40;5.63;;;;;;;;;;5051363;28;20240;-43
2022/10/12 02:39:03;;;;;;;13.05;6.18;;;;;;;;;;5051531;28;20274;-43
2022/10/12 02:41:33;;;;;;;9.13;6.00;;;;;;;;;;5051576;28;20169;-43
2022/10/12 02:44:03;;;;;;;10.20;5.95;;;;;;;;;;5051347;28;20221;-43
2022/10/12 02:46:29;;;;;;;13.23;6.45;;;;;;;;;;5051172;28;20189;-43
2022/10/12 02:48:57;;;;;;;8.27;6.07;;;;;;;;;;5051551;28;20509;-43
2022/10/12 02:51:24;;;;;;;11.95;6.18;;;;;;;;;;5051532;28;20159;-43
2022/10/12 02:53:50;;;;;;;10.90;7.03;;;;;;;;;;5051385;28;20189;-43
2022/10/12 02:56:16;;;;;;;13.85;6.07;;;;;;;;;;5050580;28;20365;-46
2022/10/12 02:58:43;;;;;;;13.90;7.40;;;;;;;;;;5051028;28;20714;-46
2022/10/12 03:01:09;;;;;;;11.80;6.32;;;;;;;;;;5051499;28;20402;-44
2022/10/12 03:03:35;;;;;;;8.70;6.43;;;;;;;;;;5051408;28;20266;-44
2022/10/12 03:06:01;;;;;;;7.00;5.20;;;;;;;;;;5050887;28;20605;-45
2022/10/12 03:08:27;;;;;;;11.85;5.85;;;;;;;;;;5051216;28;20422;-46
2022/10/12 03:10:52;;;;;;;11.83;6.20;;;;;;;;;;5051182;28;20175;-47
2022/10/12 03:13:18;;;;;;;7.33;6.03;;;;;;;;;;5051548;28;20497;-44
2022/10/12 03:15:44;;;;;;;9.73;6.30;;;;;;;;;;5050649;28;20464;-46
2022/10/12 03:18:10;;;;;;;20.47;6.73;;;;;;;;;;5051164;28;20414;-46
2022/10/12 03:20:36;;;;;;;12.55;6.57;;;;;;;;;;5051281;28;20901;-45
2022/10/12 03:23:02;;;;;;;12.87;6.03;;;;;;;;;;5051196;28;20175;-45
2022/10/12 03:25:28;;;;;;;8.40;6.20;;;;;;;;;;5050431;28;20940;-44
2022/10/12 03:27:54;;;;;;;11.48;5.85;;;;;;;;;;5051004;28;20516;-44
2022/10/12 03:30:20;;;;;;;12.57;5.40;;;;;;;;;;5051199;28;20254;-47
2022/10/12 03:32:46;;;;;;;12.30;6.80;;;;;;;;;;5051121;28;20406;-45
2022/10/12 03:35:12;;;;;;;9.23;6.33;;;;;;;;;;5050777;28;20453;-46
2022/10/12 03:37:38;;;;;;;8.67;6.43;;;;;;;;;;5051536;28;20406;-46
2022/10/12 03:40:04;;;;;;;8.03;5.60;;;;;;;;;;5050868;28;20463;-44
2022/10/12 03:42:30;;;;;;;11.20;6.20;;;;;;;;;;5054650;28;20401;-46
2022/10/12 03:44:56;;;;;;;12.13;6.53;;;;;;;;;;5054118;28;20175;-45
2022/10/12 03:47:22;;;;;;;7.80;5.77;;;;;;;;;;5054598;28;20445;-46
2022/10/12 03:49:48;;;;;;;10.90;6.77;;;;;;;;;;5054366;28;20425;-44
2022/10/12 03:52:14;;;;;;;10.90;5.60;;;;;;;;;;5054482;28;20412;-46
2022/10/12 03:54:40;;;;;;;9.73;6.30;;;;;;;;;;5052217;28;20505;-46
2022/10/12 03:57:06;;;;;;;18.93;6.50;;;;;;;;;;5054280;28;20471;-46
2022/10/12 03:59:32;;;;;;;10.27;6.43;;;;;;;;;;5054259;28;20482;-47
2022/10/12 04:01:58;;;;;;;12.40;5.83;;;;;;;;;;5054310;28;20413;-44
2022/10/12 04:04:24;;;;;;;10.73;5.87;;;;;;;;;;5053896;28;20802;-46
2022/10/12 04:06:50;;;;;;;9.27;5.90;;;;;;;;;;5053720;28;20813;-45
2022/10/12 04:09:16;;;;;;;9.10;5.43;;;;;;;;;;5054197;28;20787;-43
2022/10/12 04:11:42;;;;;;;8.48;6.53;;;;;;;;;;5054126;28;20433;-44
2022/10/12 04:14:08;;;;;;;13.60;6.17;;;;;;;;;;5053908;28;20687;-44
2022/10/12 04:16:33;;;;;;;14.17;6.40;;;;;;;;;;5053475;28;20971;-46
2022/10/12 04:18:59;;;;;;;8.93;6.20;;;;;;;;;;5053722;28;20433;-44
2022/10/12 04:21:25;;;;;;;8.50;5.83;;;;;;;;;;5053929;28;20455;-44
2022/10/12 04:23:51;;;;;;;12.40;5.80;;;;;;;;;;5053692;28;20402;-47
2022/10/12 04:26:17;;;;;;;10.00;5.90;;;;;;;;;;5053451;28;20401;-46
2022/10/12 04:28:43;;;;;;;10.48;7.22;;;;;;;;;;5053682;28;20791;-44
2022/10/12 04:31:09;;;;;;;11.40;6.30;;;;;;;;;;5053737;28;20171;-44
2022/10/12 04:33:35;;;;;;;10.50;6.60;;;;;;;;;;5053538;28;20429;-43
2022/10/12 04:36:01;;;;;;;8.40;6.13;;;;;;;;;;5053077;28;20969;-46
2022/10/12 04:38:27;;;;;;;18.77;7.13;;;;;;;;;;5053485;28;20770;-46
2022/10/12 04:40:53;;;;;;;8.73;5.90;;;;;;;;;;5053746;28;20842;-46
2022/10/12 04:43:19;;;;;;;10.73;6.00;;;;;;;;;;5053527;28;20398;-45
2022/10/12 04:45:53;;;;;;;12.15;7.15;;;;;;;;;;5052886;28;20441;-45
2022/10/12 04:48:19;;;;;;;12.50;6.55;;;;;;;;;;5053231;28;20190;-45
2022/10/12 04:50:45;;;;;;;9.03;6.60;;;;;;;;;;5053561;28;20183;-45
2022/10/12 04:53:11;;;;;;;12.57;6.80;;;;;;;;;;5052885;28;20463;-44
2022/10/12 04:55:37;;;;;;;11.50;7.17;;;;;;;;;;5052575;28;20452;-46
2022/10/12 04:58:03;;;;;;;10.70;6.38;;;;;;;;;;5053096;28;20428;-46
2022/10/12 05:00:29;;;;;;;9.07;6.43;;;;;;;;;;5053220;28;20167;-46
2022/10/12 05:02:54;;;;;;;15.70;6.90;;;;;;;;;;5052947;28;20430;-47
2022/10/12 05:05:20;;;;;;;20.57;5.93;;;;;;;;;;5052461;28;20441;-46
2022/10/12 05:07:46;;;;;;;11.70;5.80;;;;;;;;;;5052898;28;20801;-46
2022/10/12 05:10:13;;;;;;;12.27;7.30;;;;;;;;;;5052966;28;20171;-46
2022/10/12 05:12:39;;;;;;;10.38;6.43;;;;;;;;;;5053143;28;20404;-46
2022/10/12 05:15:05;;;;;;;13.63;6.70;;;;;;;;;;5052251;28;20198;-46
2022/10/12 05:17:31;;;;;;;14.43;6.88;;;;;;;;;;5052738;28;20405;-45
2022/10/12 05:19:57;;;;;;;10.03;6.10;;;;;;;;;;5052985;28;20175;-45
2022/10/12 05:22:23;;;;;;;10.95;5.85;;;;;;;;;;5052722;28;20410;-44
2022/10/12 05:24:49;;;;;;;15.13;6.67;;;;;;;;;;5052139;28;20167;-45
2022/10/12 05:27:15;;;;;;;10.43;5.70;;;;;;;;;;5052642;28;20814;-45
2022/10/12 05:29:41;;;;;;;8.20;6.17;;;;;;;;;;5052559;28;20218;-47
2022/10/12 05:32:07;;;;;;;11.40;6.90;;;;;;;;;;5052520;28;20881;-47
2022/10/12 05:34:33;;;;;;;10.55;7.78;;;;;;;;;;5052337;28;20896;-45
2022/10/12 05:37:00;;;;;;;15.97;6.47;;;;;;;;;;5052174;28;20206;-46
2022/10/12 05:39:26;;;;;;;13.93;6.85;;;;;;;;;;5052372;28;20422;-46
2022/10/12 05:41:54;;;;;;;17.08;6.32;;;;;;;;;;5052445;28;20250;-44
2022/10/12 05:44:20;;;;;;;8.60;5.93;;;;;;;;;;5052150;28;20193;-46
2022/10/12 05:46:46;;;;;;;14.43;7.00;;;;;;;;;;5051851;28;20174;-46
2022/10/12 05:49:12;;;;;;;18.87;6.83;;;;;;;;;;5052174;28;20200;-46
2022/10/12 05:51:39;;;;;;;10.47;6.57;;;;;;;;;;5052227;28;20406;-46
2022/10/12 05:54:05;;;;;;;16.95;6.70;;;;;;;;;;5051958;28;20410;-44
2022/10/12 05:56:31;;;;;;;15.40;6.80;;;;;;;;;;5051633;28;20198;-46
2022/10/12 05:58:57;;;;;;;13.30;6.40;;;;;;;;;;5052048;28;20478;-46
2022/10/12 06:01:23;;;;;;;9.35;6.40;;;;;;;;;;5051941;28;20761;-46
2022/10/12 06:03:49;;;;;;;10.13;7.30;;;;;;;;;;5051046;28;20187;-45
2022/10/12 06:06:15;;;;;;;14.27;6.88;;;;;;;;;;5051525;28;20467;-46
2022/10/12 06:08:41;;;;;;;10.17;6.57;;;;;;;;;;5051117;28;20675;-45
2022/10/12 06:11:07;;;;;;;13.00;7.38;;;;;;;;;;5050830;28;20406;-44
2022/10/12 06:13:33;;;;;;;11.77;7.47;;;;;;;;;;5051817;28;20174;-44
2022/10/12 06:15:59;;;;;;;15.30;8.17;;;;;;;;;;5050872;28;20459;-47
2022/10/12 06:18:25;;;;;;;21.83;9.23;;;;;;;;;;5052038;28;20869;-45
2022/10/12 06:20:52;;;;;;;9.10;7.57;;;;;;;;;;5051501;28;20433;-45
2022/10/12 06:23:19;;;;;;;10.27;7.30;;;;;;;;;;5051748;28;20917;-44
2022/10/12 06:25:46;;;;;;;13.50;7.20;;;;;;;;;;5051471;28;20206;-46
2022/10/12 06:28:12;;;;;;;11.00;7.22;;;;;;;;;;5051406;28;20558;-45
2022/10/12 06:30:38;;;;;;;10.63;6.57;;;;;;;;;;5051344;28;20175;-44
2022/10/12 06:33:04;;;;;;;9.80;7.30;;;;;;;;;;5051539;28;20410;-45
2022/10/12 06:35:29;;;;;;;11.90;7.10;;;;;;;;;;5037689;28;20457;-46
2022/10/12 06:37:55;;;;;;;16.90;7.77;;;;;;;;;;5047297;28;20429;-46
2022/10/12 06:40:21;;;;;;;12.63;6.70;;;;;;;;;;5051654;28;20405;-45
2022/10/12 06:42:48;;;;;;;19.15;8.27;;;;;;;;;;5051286;28;20906;-44
2022/10/12 06:45:14;;;;;;;11.48;7.22;;;;;;;;;;5051284;28;20170;-46
2022/10/12 06:47:40;;;;;;;18.05;7.30;;;;;;;;;;5051453;28;20571;-46
2022/10/12 06:50:06;;;;;;;13.27;7.33;;;;;;;;;;5051435;28;20171;-46
2022/10/12 06:52:32;;;;;;;19.40;7.57;;;;;;;;;;5051484;28;20398;-46
2022/10/12 06:54:58;;;;;;;11.85;6.80;;;;;;;;;;5050638;28;20171;-46
2022/10/12 06:57:24;;;;;;;17.47;8.77;;;;;;;;;;5050877;28;20187;-46
2022/10/12 06:59:50;;;;;;;13.73;7.43;;;;;;;;;;5050148;28;20468;-46
2022/10/12 07:02:16;;;;;;;11.73;7.03;;;;;;;;;;5051182;28;20592;-44
2022/10/12 07:04:42;;;;;;;17.45;7.95;;;;;;;;;;5051129;28;20500;-45
2022/10/12 07:07:09;;;;;;;13.03;6.53;;;;;;;;;;5051349;28;20255;-44
2022/10/12 07:09:35;;;;;;;12.60;7.50;;;;;;;;;;5051196;28;20766;-46
2022/10/12 07:12:01;;;;;;;13.80;7.70;;;;;;;;;;5050989;28;20489;-46
2022/10/12 07:14:27;;;;;;;11.03;7.23;;;;;;;;;;5051834;28;20789;-46
2022/10/12 07:16:53;;;;;;;16.47;8.30;;;;;;;;;;5054709;28;20461;-44
2022/10/12 07:19:19;;;;;;;16.70;8.90;;;;;;;;;;5054901;28;20546;-44
2022/10/12 07:21:45;;;;;;;18.00;7.63;;;;;;;;;;5054798;28;20480;-46
2022/10/12 07:24:11;;;;;;;11.60;7.87;;;;;;;;;;5054735;28;20405;-44
2022/10/12 07:26:37;;;;;;;11.77;6.80;;;;;;;;;;5054422;28;20841;-44
2022/10/12 07:29:03;;;;;;;14.03;7.30;;;;;;;;;;5054951;28;20438;-45
2022/10/12 07:31:29;;;;;;;9.47;6.57;;;;;;;;;;5054773;28;20411;-48
2022/10/12 07:33:55;;;;;;;13.70;7.50;;;;;;;;;;5054573;28;20400;-47
2022/10/12 07:36:21;;;;;;;14.03;8.20;;;;;;;;;;5054236;28;20464;-44
2022/10/12 07:38:48;;;;;;;14.97;7.00;;;;;;;;;;5054591;28;20514;-46
2022/10/12 07:41:14;;;;;;;12.27;7.20;;;;;;;;;;5054464;28;20836;-46
2022/10/12 07:43:40;;;;;;;18.33;6.80;;;;;;;;;;5054441;28;20401;-46
2022/10/12 07:46:07;;;;;;;14.17;7.90;;;;;;;;;;5053986;28;20417;-46
2022/10/12 07:48:33;;;;;;;16.80;7.83;;;;;;;;;;5054085;28;20442;-46
2022/10/12 07:51:03;;;;;;;17.80;7.20;;;;;;;;;;5066670;28;20416;-45
2022/10/12 07:53:29;;;;;;;9.23;7.30;;;;;;;;;;5074787;28;20750;-46
2022/10/12 07:56:02;;;;;;;14.07;7.70;;;;;;;;;;5073271;28;20981;-46
2022/10/12 07:58:28;;;;;;;23.20;8.60;;;;;;;;;;5074043;28;20474;-46
2022/10/12 08:00:54;;;;;;;17.93;8.50;;;;;;;;;;5074362;28;20766;-46
2022/10/12 08:03:20;;;;;;;21.50;8.23;;;;;;;;;;5073898;28;20421;-46
2022/10/12 08:05:46;;;;;;;22.10;10.90;;;;;;;;;;5073440;28;20439;-46
2022/10/12 08:08:13;;;;;;;18.70;8.20;;;;;;;;;;5073997;28;20423;-45
2022/10/12 08:10:39;;;;;;;13.07;8.50;;;;;;;;;;5073907;28;20418;-46
2022/10/12 08:13:04;;;;;;;13.50;8.97;;;;;;;;;;5073882;28;20404;-47
2022/10/12 08:15:30;;;;;;;13.73;7.03;;;;;;;;;;5073433;28;20856;-46
2022/10/12 08:17:56;;;;;;;9.87;6.20;;;;;;;;;;5073912;28;20412;-46
2022/10/12 08:20:22;;;;;;;14.30;6.93;;;;;;;;;;5073722;28;20916;-46
2022/10/12 08:22:48;;;;;;;13.77;7.00;;;;;;;;;;5070928;28;20401;-44
2022/10/12 08:25:14;;;;;;;11.10;6.50;;;;;;;;;;5047733;28;20418;-46
2022/10/12 08:27:40;;;;;;;11.27;6.00;;;;;;;;;;5052773;28;20401;-45
2022/10/12 08:30:07;;;;;;;11.97;6.27;;;;;;;;;;5053723;28;20417;-44
2022/10/12 08:32:33;;;;;;;9.73;5.33;;;;;;;;;;5053376;28;20430;-45
2022/10/12 08:34:59;;;;;;;17.17;6.30;;;;;;;;;;5052866;28;20770;-44
2022/10/12 08:37:25;;;;;;;13.87;5.83;;;;;;;;;;5052624;28;20393;-44
2022/10/12 08:39:51;;;;;;;12.80;6.03;;;;;;;;;;5052023;28;20999;-46
2022/10/12 08:42:26;;;;;;;8.53;4.57;;;;;;;;;;5053020;28;20426;-46
2022/10/12 08:44:54;;;;;;;13.67;6.07;;;;;;;;;;5050477;28;20405;-43
2022/10/12 08:47:43;;;;;;;11.23;5.73;;;;;;;;;;5053448;28;20446;-47
2022/10/12 08:50:20;;;;;;;8.43;5.83;;;;;;;;;;5048379;28;20904;-46
2022/10/12 08:52:53;;;;;;;9.70;4.67;;;;;;;;;;5053089;28;20398;-46
2022/10/12 08:55:32;;;;;;;15.00;6.10;;;;;;;;;;5053159;28;20482;-43
2022/10/12 08:57:58;;;;;;;10.73;5.53;;;;;;;;;;5053497;28;20977;-43
2022/10/12 09:00:24;;;;;;;9.30;5.50;;;;;;;;;;5053459;28;20400;-44
2022/10/12 09:02:56;;;;;;;17.80;6.20;;;;;;;;;;5052411;28;20477;-43
2022/10/12 09:05:29;;;;;;;15.10;6.90;;;;;;;;;;5052577;28;20409;-43
2022/10/12 09:07:57;;;;;;;15.77;7.60;;;;;;;;;;5052794;28;20400;-43
2022/10/12 09:10:30;;;;;;;14.80;6.60;;;;;;;;;;5053118;28;20789;-44
2022/10/12 09:13:02;;;;;;;11.40;5.57;;;;;;;;;;5052785;28;20890;-43
2022/10/12 09:15:31;;;;;;;12.00;4.40;;;;;;;;;;5051932;28;20926;-44
2022/10/12 09:17:57;;;;;;;9.63;4.97;;;;;;;;;;5052733;28;20435;-44
2022/10/12 09:20:34;;;;;;;7.40;4.00;;;;;;;;;;5052714;28;20405;-44
2022/10/12 09:23:06;;;;;;;8.13;4.20;;;;;;;;;;5052916;28;20395;-44
2022/10/12 09:25:32;;;;;;;5.77;3.83;;;;;;;;;;5051788;28;20412;-44
2022/10/12 09:28:05;;;;;;;8.50;3.70;;;;;;;;;;5052626;28;20523;-44
2022/10/12 09:30:33;;;;;;;6.73;4.10;;;;;;;;;;5052608;28;20413;-44
2022/10/12 09:32:59;;;;;;;5.67;3.80;;;;;;;;;;5052505;28;20412;-44
2022/10/12 09:35:25;;;;;;;6.80;3.80;;;;;;;;;;5051653;28;20439;-43
2022/10/12 09:37:52;;;;;;;6.60;4.13;;;;;;;;;;5052176;28;20767;-44
2022/10/12 09:40:30;;;;;;;6.30;3.50;;;;;;;;;;5052503;28;20895;-44
2022/10/12 09:42:57;;;;;;;10.13;4.40;;;;;;;;;;5052329;28;20884;-43
2022/10/12 09:45:24;;;;;;;7.17;3.30;;;;;;;;;;5051380;28;20408;-44
2022/10/12 09:48:08;;;;;;;8.00;4.27;;;;;;;;;;5051877;28;20427;-44
2022/10/12 09:50:39;;;;;;;13.33;3.90;;;;;;;;;;5051739;28;20417;-43
2022/10/12 09:53:12;;;;;;;7.07;4.50;;;;;;;;;;5052065;28;20411;-44
2022/10/12 09:55:38;;;;;;;10.40;4.70;;;;;;;;;;5051172;28;20460;-43
2022/10/12 09:58:04;;;;;;;10.43;3.83;;;;;;;;;;5051696;28;20508;-43
2022/10/12 10:00:34;;;;;;;8.33;3.43;;;;;;;;;;5051737;28;20435;-44
2022/10/12 10:03:01;;;;;;;9.43;3.77;;;;;;;;;;5051353;28;20428;-44
2022/10/12 10:05:28;;;;;;;4.50;3.63;;;;;;;;;;5051240;28;20772;-44
2022/10/12 10:08:14;;;;;;;11.40;4.43;;;;;;;;;;5047559;28;20469;-44
2022/10/12 10:10:51;;;;;;;7.53;3.80;;;;;;;;;;5045226;28;20485;-44
2022/10/12 10:13:17;;;;;;;7.40;3.30;;;;;;;;;;5051557;28;20913;-44
2022/10/12 10:15:45;;;;;;;5.80;3.30;;;;;;;;;;5050615;28;20468;-44
2022/10/12 10:18:21;;;;;;;8.43;3.83;;;;;;;;;;5051677;28;20468;-43
2022/10/12 10:20:58;;;;;;;5.50;3.37;;;;;;;;;;5051592;28;20404;-44
2022/10/12 10:23:29;;;;;;;6.80;3.23;;;;;;;;;;5051468;28;20401;-44
2022/10/12 10:26:01;;;;;;;8.43;3.40;;;;;;;;;;5049394;28;20436;-44
2022/10/12 10:28:28;;;;;;;7.83;3.40;;;;;;;;;;5051220;28;20424;-44
2022/10/12 10:30:56;;;;;;;7.70;3.07;;;;;;;;;;5051477;28;20410;-44
2022/10/12 10:33:22;;;;;;;4.97;3.50;;;;;;;;;;5051390;28;20397;-44
2022/10/12 10:35:54;;;;;;;6.17;2.50;;;;;;;;;;5050446;28;20486;-44
2022/10/12 10:38:19;;;;;;;5.43;3.30;;;;;;;;;;5049969;28;20424;-44
2022/10/12 10:40:50;;;;;;;10.10;3.40;;;;;;;;;;5051326;28;20758;-44
2022/10/12 10:43:20;;;;;;;5.13;2.90;;;;;;;;;;5051246;28;20886;-44
2022/10/12 10:45:51;;;;;;;7.20;3.30;;;;;;;;;;5050400;28;20568;-44
2022/10/12 10:48:19;;;;;;;11.80;3.37;;;;;;;;;;5051136;28;20424;-44
2022/10/12 10:50:50;;;;;;;5.67;3.53;;;;;;;;;;5053964;28;20413;-44
2022/10/12 10:53:24;;;;;;;4.17;2.67;;;;;;;;;;5055268;28;20397;-44
2022/10/12 10:55:54;;;;;;;5.67;2.50;;;;;;;;;;5054337;28;20452;-44
2022/10/12 10:58:29;;;;;;;5.83;2.50;;;;;;;;;;5055044;28;20787;-44
2022/10/12 11:00:59;;;;;;;4.67;2.70;;;;;;;;;;5055065;28;20400;-44
2022/10/12 11:03:32;;;;;;;3.00;2.30;;;;;;;;;;5054807;28;20428;-44
2022/10/12 11:06:18;;;;;;;5.73;2.47;;;;;;;;;;5054416;28;20832;-44
2022/10/12 11:08:46;;;;;;;6.40;2.40;;;;;;;;;;5054872;28;20424;-44
2022/10/12 11:11:18;;;;;;;6.27;2.23;;;;;;;;;;5054710;28;20412;-44
2022/10/12 11:14:02;;;;;;;4.27;2.30;;;;;;;;;;5054793;28;20760;-44
2022/10/12 11:16:32;;;;;;;3.67;2.27;;;;;;;;;;5054253;28;20463;-44
2022/10/12 11:19:01;;;;;;;9.60;3.07;;;;;;;;;;5054795;28;20443;-44
2022/10/12 11:21:42;;;;;;;2.70;2.40;;;;;;;;;;5055418;28;20437;-44
2022/10/12 11:24:12;;;;;;;5.80;2.20;;;;;;;;;;5054686;28;20451;-44
2022/10/12 11:26:43;;;;;;;9.47;2.40;;;;;;;;;;5056637;28;20893;-44
2022/10/12 11:29:10;;;;;;;3.60;1.67;;;;;;;;;;5059364;28;20508;-43
2022/10/12 11:31:38;;;;;;;5.03;1.50;;;;;;;;;;5063776;28;20415;-44
2022/10/12 11:34:06;;;;;;;9.10;2.30;;;;;;;;;;5058143;28;20418;-44
2022/10/12 11:36:34;;;;;;;3.43;1.90;;;;;;;;;;5054293;28;20460;-44
2022/10/12 11:39:05;;;;;;;5.03;3.23;;;;;;;;;;5054288;28;20848;-44
2022/10/12 11:41:31;;;;;;;3.90;1.50;;;;;;;;;;5054376;28;20405;-44
2022/10/12 11:44:00;;;;;;;4.47;2.00;;;;;;;;;;5054435;28;20420;-44
2022/10/12 11:46:31;;;;;;;4.77;1.87;;;;;;;;;;5037103;28;20450;-44
2022/10/12 11:49:12;;;;;;;9.53;1.90;;;;;;;;;;5053432;28;20982;-44
2022/10/12 11:51:37;;;;;;;3.00;1.77;;;;;;;;;;5053289;28;20410;-44
2022/10/12 11:54:11;;;;;;;2.10;1.90;;;;;;;;;;5054152;28;20405;-44
2022/10/12 11:56:42;;;;;;;6.47;1.83;;;;;;;;;;5053548;28;20830;-44
2022/10/12 11:59:23;;;;;;;5.30;2.37;;;;;;;;;;5056191;28;20476;-44
2022/10/12 12:01:58;;;;;;;14.73;2.67;;;;;;;;;;5071576;28;20400;-44
2022/10/12 12:04:31;;;;;;;5.60;2.33;;;;;;;;;;5067157;28;20974;-44
2022/10/12 12:07:01;;;;;;;6.30;2.57;;;;;;;;;;5053820;28;20440;-44
2022/10/12 12:09:32;;;;;;;4.40;1.80;;;;;;;;;;5054089;28;20516;-44
2022/10/12 12:12:28;;;;;;;2.43;1.50;;;;;;;;;;5054124;28;20416;-44
2022/10/12 12:14:53;;;;;;;8.43;2.20;;;;;;;;;;5042931;28;20810;-44
2022/10/12 12:17:20;;;;;;;9.27;2.40;;;;;;;;;;5053480;28;20457;-44
2022/10/12 12:19:47;;;;;;;2.87;2.10;;;;;;;;;;5052498;28;20439;-44
2022/10/12 12:22:15;;;;;;;5.97;2.33;;;;;;;;;;5053203;28;20408;-44
2022/10/12 12:24:50;;;;;;;4.97;2.33;;;;;;;;;;5051447;28;20416;-44
2022/10/12 12:27:20;;;;;;;5.80;3.60;;;;;;;;;;5046996;28;20529;-44
2022/10/12 12:29:50;;;;;;;6.73;2.80;;;;;;;;;;5048521;28;20444;-44
2022/10/12 12:32:16;;;;;;;5.33;3.10;;;;;;;;;;5052684;28;20405;-44
2022/10/12 12:34:49;;;;;;;4.80;2.97;;;;;;;;;;5051530;28;20410;-44
2022/10/12 12:37:20;;;;;;;7.57;2.70;;;;;;;;;;5052835;28;20853;-44
2022/10/12 12:39:50;;;;;;;7.00;3.67;;;;;;;;;;5053412;28;21022;-44
2022/10/12 12:42:21;;;;;;;5.13;3.50;;;;;;;;;;5053894;28;20401;-44
2022/10/12 12:44:47;;;;;;;6.77;2.60;;;;;;;;;;5053482;28;20412;-44
2022/10/12 12:47:13;;;;;;;6.63;3.20;;;;;;;;;;5053096;28;20401;-44
2022/10/12 12:49:48;;;;;;;4.17;2.67;;;;;;;;;;5053201;28;20494;-44
2022/10/12 12:52:17;;;;;;;7.50;2.80;;;;;;;;;;5053195;28;20435;-44
2022/10/12 12:55:03;;;;;;;8.70;2.77;;;;;;;;;;5053053;28;20927;-43
2022/10/12 12:57:35;;;;;;;8.57;3.47;;;;;;;;;;5048847;28;20462;-44
2022/10/12 13:00:12;;;;;;;5.23;3.60;;;;;;;;;;5053052;28;20435;-44
2022/10/12 13:02:55;;;;;;;5.40;3.50;;;;;;;;;;5053168;28;20423;-44
2022/10/12 13:05:53;;;;;;;11.50;3.83;;;;;;;;;;5052602;28;20893;-44
2022/10/12 13:08:31;;;;;;;9.90;2.73;;;;;;;;;;5040772;28;20451;-44
2022/10/12 13:11:09;;;;;;;6.63;3.30;;;;;;;;;;5052985;28;20877;-44
2022/10/12 13:13:45;;;;;;;4.60;2.60;;;;;;;;;;5052089;28;20428;-44
2022/10/12 13:16:23;;;;;;;2.50;2.30;;;;;;;;;;5050898;28;20540;-44
2022/10/12 13:18:53;;;;;;;4.90;2.73;;;;;;;;;;5051290;28;20434;-44
2022/10/12 13:21:22;;;;;;;6.40;2.50;;;;;;;;;;5051408;28;20407;-44
2022/10/12 13:23:49;;;;;;;4.43;2.67;;;;;;;;;;5051593;28;20404;-44
2022/10/12 13:26:18;;;;;;;5.70;2.53;;;;;;;;;;5050669;28;20462;-44
2022/10/12 13:28:45;;;;;;;7.80;3.10;;;;;;;;;;5051019;28;20431;-44
2022/10/12 13:31:18;;;;;;;8.43;2.70;;;;;;;;;;5050949;28;20543;-44
2022/10/12 13:33:49;;;;;;;5.40;3.30;;;;;;;;;;5051460;28;20799;-43
2022/10/12 13:36:21;;;;;;;5.07;3.23;;;;;;;;;;5050652;28;20454;-44
2022/10/12 13:38:47;;;;;;;7.00;2.83;;;;;;;;;;5049353;28;20567;-44
2022/10/12 13:41:15;;;;;;;3.90;2.70;;;;;;;;;;5050693;28;20507;-44
2022/10/12 13:44:00;;;;;;;4.73;2.50;;;;;;;;;;5050829;28;20501;-44
2022/10/12 13:46:35;;;;;;;8.10;2.90;;;;;;;;;;5051185;28;20413;-44
2022/10/12 13:49:02;;;;;;;12.23;4.17;;;;;;;;;;5050789;28;20928;-44
2022/10/12 13:51:29;;;;;;;5.83;2.70;;;;;;;;;;5051250;28;20761;-44
2022/10/12 13:53:56;;;;;;;6.60;3.13;;;;;;;;;;5051578;28;20410;-44
2022/10/12 13:56:27;;;;;;;4.97;3.10;;;;;;;;;;5050557;28;20804;-44
2022/10/12 13:58:56;;;;;;;4.87;3.20;;;;;;;;;;5056450;28;20425;-44
2022/10/12 14:01:21;;;;;;;8.63;3.70;;;;;;;;;;5071900;28;20396;-44
2022/10/12 14:03:47;;;;;;;6.67;2.97;;;;;;;;;;5058547;28;20414;-44
2022/10/12 14:06:30;;;;;;;7.37;3.73;;;;;;;;;;5051134;28;20467;-44
2022/10/12 14:08:58;;;;;;;7.27;3.30;;;;;;;;;;5051673;28;20438;-44
2022/10/12 14:11:26;;;;;;;6.20;3.87;;;;;;;;;;5052061;28;20511;-44
2022/10/12 14:13:52;;;;;;;12.60;3.87;;;;;;;;;;5051735;28;20477;-44
2022/10/12 14:16:18;;;;;;;6.53;3.33;;;;;;;;;;5051228;28;20455;-44
2022/10/12 14:18:45;;;;;;;7.97;3.20;;;;;;;;;;5051254;28;20822;-44
2022/10/12 14:21:22;;;;;;;7.97;3.07;;;;;;;;;;5049307;28;20406;-44
2022/10/12 14:23:50;;;;;;;3.93;2.60;;;;;;;;;;5046695;28;20433;-44
2022/10/12 14:26:34;;;;;;;4.60;2.67;;;;;;;;;;5050692;28;20405;-43
2022/10/12 14:29:20;;;;;;;6.93;2.80;;;;;;;;;;5051515;28;20428;-44
2022/10/12 14:31:51;;;;;;;9.00;3.47;;;;;;;;;;5050148;28;20405;-44
2022/10/12 14:34:26;;;;;;;9.17;2.57;;;;;;;;;;5049195;28;20903;-45
2022/10/12 14:36:59;;;;;;;5.40;2.83;;;;;;;;;;5050088;28;20452;-44
2022/10/12 14:39:25;;;;;;;5.80;2.83;;;;;;;;;;5050372;28;20434;-44
2022/10/12 14:41:51;;;;;;;5.90;2.90;;;;;;;;;;5050750;28;20434;-44
2022/10/12 14:44:18;;;;;;;3.80;2.10;;;;;;;;;;5050559;28;20437;-44
2022/10/12 14:47:04;;;;;;;5.37;3.13;;;;;;;;;;5050631;28;20393;-44